Bookmark and Share
Track history (hours):
 

Eems Trader

Last reported at 2014-Apr-21 04:25 UTC. Time now 2014-Apr-21 04:45 UTC.
Position N 42°59' E 003°06'.

; draft 3 m.

Type: Cargo ship. MMSI: 305182000.

NotesDate/timePositionNaut miles runAvg speedWind from/ knotsBaromVisibWave heightAir tempDewpointWater temp
2014-Apr-21 04:25N 42°59' E 003°06'0 0.0
2014-Apr-21 03:07N 42°59' E 003°06'3 4.5
2014-Apr-21 02:33N 42°60' E 003°09'7 7.3
2014-Apr-21 01:32N 42°59' E 003°19'8 8.3
2014-Apr-21 00:33N 42°59' E 003°30'8 8.2
2014-Apr-20 23:33N 42°58' E 003°42'8 7.9
2014-Apr-20 22:33N 42°57' E 003°52'8 8.4
2014-Apr-20 21:33N 42°57' E 004°04'8 8.2
2014-Apr-20 20:33N 42°57' E 004°15'8 8.2
2014-Apr-20 19:33N 42°56' E 004°26'8 8.1
2014-Apr-20 18:34N 42°56' E 004°37'9 9.1
2014-Apr-20 17:33N 42°55' E 004°50'11 9.7
2014-Apr-20 16:28N 42°54' E 005°04'1110.0
2014-Apr-20 15:24N 42°54' E 005°18'8 9.8
2014-Apr-20 14:34N 42°53' E 005°30'1010.0
2014-Apr-20 13:34N 42°52' E 005°43'1010.4
2014-Apr-20 12:34N 42°52' E 005°57'1010.4
2014-Apr-20 11:34N 42°51' E 006°12'1010.4
2014-Apr-20 10:34N 42°53' E 006°25'1010.2
2014-Apr-20 09:33N 42°55' E 006°39'103 8.5
2014-Apr-19 21:33N 43°24' E 008°54'7 7.1
2014-Apr-19 20:34N 43°24' E 009°04'7 6.4
2014-Apr-19 19:33N 43°24' E 009°13'7 7.2
2014-Apr-19 18:34N 43°24' E 009°22'8 8.2
2014-Apr-19 17:33N 43°27' E 009°33'9 8.6
2014-Apr-19 16:34N 43°29' E 009°45'9 8.7
2014-Apr-19 15:33N 43°31' E 009°56'9 9.0
2014-Apr-19 14:33N 43°31' E 010°09'8 7.8
2014-Apr-19 13:33N 43°34' E 010°19'1 0.6
2014-Apr-19 12:32N 43°35' E 010°19'0 0.0
2014-Apr-19 11:32N 43°35' E 010°19'0 0.0
2014-Apr-19 10:32N 43°35' E 010°19'0 0.0
2014-Apr-19 09:32N 43°35' E 010°19'0 0.0
2014-Apr-19 08:32N 43°35' E 010°19'0 0.0
2014-Apr-19 07:26N 43°35' E 010°19'0 0.0
2014-Apr-19 06:32N 43°35' E 010°19'0 0.0
2014-Apr-19 05:26N 43°35' E 010°19'0 0.0
2014-Apr-19 04:32N 43°35' E 010°19'0 0.0
2014-Apr-19 03:32N 43°35' E 010°19'0 0.0
2014-Apr-19 02:32N 43°35' E 010°19'0 0.0
2014-Apr-19 01:32N 43°35' E 010°19'0 0.0
2014-Apr-19 00:32N 43°35' E 010°19'0 0.0
2014-Apr-18 23:32N 43°35' E 010°19'0 0.0
2014-Apr-18 22:32N 43°35' E 010°19'0 0.0
2014-Apr-18 21:32N 43°35' E 010°19'0 0.0
2014-Apr-18 20:32N 43°35' E 010°19'0 0.0
2014-Apr-18 19:32N 43°35' E 010°19'0 0.0
2014-Apr-18 18:32N 43°35' E 010°19'0 0.0
2014-Apr-18 17:32N 43°35' E 010°19'0 0.0
2014-Apr-18 16:32N 43°35' E 010°19'0 0.0
2014-Apr-18 15:32N 43°35' E 010°19'0 0.0
2014-Apr-18 14:32N 43°35' E 010°19'0 0.0
2014-Apr-18 13:32N 43°35' E 010°19'0 0.0
2014-Apr-18 12:32N 43°35' E 010°19'0 0.0
2014-Apr-18 11:29N 43°35' E 010°19'0 0.0
2014-Apr-18 10:32N 43°35' E 010°19'0 0.0
2014-Apr-18 09:26N 43°35' E 010°19'0 0.0
2014-Apr-18 08:32N 43°35' E 010°19'1 1.4
2014-Apr-18 07:33N 43°34' E 010°18'4 4.4
2014-Apr-18 06:33N 43°30' E 010°14'8 7.9
2014-Apr-18 05:34N 43°31' E 010°03'9 8.9
2014-Apr-18 04:34N 43°30' E 009°51'9 8.6
2014-Apr-18 03:34N 43°28' E 009°39'9 8.7
2014-Apr-18 02:33N 43°26' E 009°28'9 9.3
2014-Apr-18 01:33N 43°24' E 009°15'10 9.2
2014-Apr-18 00:28N 43°21' E 009°02'9 9.2
2014-Apr-17 23:32N 43°19' E 008°51'12 9.3
2014-Apr-17 22:17N 43°15' E 008°36'6 8.8
2014-Apr-17 21:34N 43°14' E 008°27'10 8.6
2014-Apr-17 20:26N 43°12' E 008°14'73 9.0
2014-Apr-17 12:16N 42°54' E 006°37'6 8.6
2014-Apr-17 11:33N 42°52' E 006°29'9 8.6
2014-Apr-17 10:33N 42°50' E 006°17'8 7.6
2014-Apr-17 09:34N 42°51' E 006°07'8 7.8
2014-Apr-17 08:33N 42°52' E 005°56'8 8.1
2014-Apr-17 07:33N 42°53' E 005°45'8 7.9
2014-Apr-17 06:33N 42°54' E 005°35'8 8.1
2014-Apr-17 05:30N 42°54' E 005°23'33 8.3
2014-Apr-17 01:32N 42°55' E 004°38'9 8.9
2014-Apr-17 00:33N 42°56' E 004°26'9 8.8
2014-Apr-16 23:30N 42°56' E 004°14'10 8.4
2014-Apr-16 22:18N 42°57' E 003°60'7 8.8
2014-Apr-16 21:28N 42°57' E 003°50'7 8.0
2014-Apr-16 20:33N 42°57' E 003°40'9 8.6
2014-Apr-16 19:33N 42°57' E 003°28'12 8.5
2014-Apr-16 18:07N 42°58' E 003°12'5 8.8
2014-Apr-16 17:33N 43°00' E 003°05'2 1.5
2014-Apr-16 16:29N 43°01' E 003°03'0 0.0
2014-Apr-16 15:24N 43°01' E 003°03'0 0.0
2014-Apr-16 11:22N 43°01' E 003°03'0 0.0
2014-Apr-16 10:29N 43°01' E 003°03'34 3.8
2014-Apr-16 01:34N 43°05' E 003°49'8 8.0
2014-Apr-16 00:32N 43°08' E 003°60'8 7.9
2014-Apr-15 23:32N 43°10' E 004°10'16 7.9
2014-Apr-15 21:33N 43°13' E 004°31'7 7.4
2014-Apr-15 20:33N 43°15' E 004°41'9 8.8
2014-Apr-15 19:33N 43°18' E 004°52'5 5.3
2014-Apr-15 18:33N 43°23' E 004°52'2 2.4
2014-Apr-15 17:33N 43°23' E 004°49'  
2014-Apr-12 14:33N 43°31' E 004°44'7 6.8
2014-Apr-12 13:30N 43°24' E 004°46'2 2.2
2014-Apr-12 12:33N 43°23' E 004°49'7 7.4
2014-Apr-12 11:33N 43°21' E 004°59'5 5.4
2014-Apr-12 10:34N 43°15' E 005°01'8 8.1
2014-Apr-12 09:32N 43°08' E 005°06'12 9.3
2014-Apr-12 08:17N 42°58' E 005°14'19 9.6
2014-Apr-12 06:20N 42°42' E 005°27'45 9.3
2014-Apr-12 01:25N 42°03' E 005°58'9 9.4
2014-Apr-12 00:30N 41°55' E 006°04'29 9.4
2014-Apr-11 21:25N 41°30' E 006°24'8 9.7
2014-Apr-11 20:33N 41°23' E 006°29'24 9.5
2014-Apr-11 18:04N 41°02' E 006°45'99 9.4
2014-Apr-11 07:30N 39°36' E 007°48'9 9.1
2014-Apr-11 06:30N 39°28' E 007°54'  

Dump ship's entire track history

sailing weather and tide predictions

Eems Trader — V2DE3 — position and weather